sensor_id;sensor_type;location;lat;lon;timestamp;P1;durP1;ratioP1;P2;durP2;ratioP2
74196;SDS011;62555;52.678;4.900;2023-11-18T00:01:14;534.28;;;366.02;;
74196;SDS011;62555;52.678;4.900;2023-11-18T00:03:39;242.30;;;137.95;;
74196;SDS011;62555;52.678;4.900;2023-11-18T00:06:04;198.07;;;104.90;;
74196;SDS011;62555;52.678;4.900;2023-11-18T00:08:29;93.13;;;47.47;;
74196;SDS011;62555;52.678;4.900;2023-11-18T00:10:55;40.58;;;20.65;;
74196;SDS011;62555;52.678;4.900;2023-11-18T00:13:21;19.13;;;8.03;;
74196;SDS011;62555;52.678;4.900;2023-11-18T00:15:46;8.05;;;4.00;;
74196;SDS011;62555;52.678;4.900;2023-11-18T00:18:13;6.75;;;3.78;;
74196;SDS011;62555;52.678;4.900;2023-11-18T00:20:38;4.73;;;3.20;;
74196;SDS011;62555;52.678;4.900;2023-11-18T00:23:03;5.17;;;3.27;;
74196;SDS011;62555;52.678;4.900;2023-11-18T00:25:29;4.53;;;2.70;;
74196;SDS011;62555;52.678;4.900;2023-11-18T00:27:55;3.10;;;2.42;;
74196;SDS011;62555;52.678;4.900;2023-11-18T00:30:20;3.70;;;2.70;;
74196;SDS011;62555;52.678;4.900;2023-11-18T00:32:45;3.30;;;2.63;;
74196;SDS011;62555;52.678;4.900;2023-11-18T00:35:10;3.73;;;2.83;;
74196;SDS011;62555;52.678;4.900;2023-11-18T00:37:35;5.00;;;3.13;;
74196;SDS011;62555;52.678;4.900;2023-11-18T00:40:00;4.60;;;2.95;;
74196;SDS011;62555;52.678;4.900;2023-11-18T00:42:26;3.35;;;2.88;;
74196;SDS011;62555;52.678;4.900;2023-11-18T00:44:51;3.23;;;2.60;;
74196;SDS011;62555;52.678;4.900;2023-11-18T00:47:16;3.57;;;3.00;;
74196;SDS011;62555;52.678;4.900;2023-11-18T00:49:41;4.20;;;2.70;;
74196;SDS011;62555;52.678;4.900;2023-11-18T00:52:06;2.70;;;2.40;;
74196;SDS011;62555;52.678;4.900;2023-11-18T00:54:32;5.38;;;3.15;;
74196;SDS011;62555;52.678;4.900;2023-11-18T00:56:57;2.95;;;2.53;;
74196;SDS011;62555;52.678;4.900;2023-11-18T00:59:22;5.93;;;3.50;;
74196;SDS011;62555;52.678;4.900;2023-11-18T01:01:47;4.07;;;3.00;;
74196;SDS011;62555;52.678;4.900;2023-11-18T01:04:13;3.55;;;3.25;;
74196;SDS011;62555;52.678;4.900;2023-11-18T01:06:39;3.73;;;2.73;;
74196;SDS011;62555;52.678;4.900;2023-11-18T01:09:04;3.80;;;2.95;;
74196;SDS011;62555;52.678;4.900;2023-11-18T01:11:31;4.18;;;2.90;;
74196;SDS011;62555;52.678;4.900;2023-11-18T01:13:56;3.20;;;2.83;;
74196;SDS011;62555;52.678;4.900;2023-11-18T01:16:22;4.00;;;3.10;;
74196;SDS011;62555;52.678;4.900;2023-11-18T01:18:47;3.92;;;3.20;;
74196;SDS011;62555;52.678;4.900;2023-11-18T01:21:12;3.03;;;2.72;;
74196;SDS011;62555;52.678;4.900;2023-11-18T01:23:38;6.13;;;3.30;;
74196;SDS011;62555;52.678;4.900;2023-11-18T01:26:04;3.25;;;2.80;;
74196;SDS011;62555;52.678;4.900;2023-11-18T01:28:30;3.45;;;2.60;;
74196;SDS011;62555;52.678;4.900;2023-11-18T01:30:56;4.70;;;3.25;;
74196;SDS011;62555;52.678;4.900;2023-11-18T01:33:21;3.90;;;2.77;;
74196;SDS011;62555;52.678;4.900;2023-11-18T01:35:47;4.32;;;2.83;;
74196;SDS011;62555;52.678;4.900;2023-11-18T01:38:13;3.75;;;3.03;;
74196;SDS011;62555;52.678;4.900;2023-11-18T01:40:38;4.00;;;3.15;;
74196;SDS011;62555;52.678;4.900;2023-11-18T01:43:03;3.92;;;2.80;;
74196;SDS011;62555;52.678;4.900;2023-11-18T01:45:36;5.05;;;3.53;;
74196;SDS011;62555;52.678;4.900;2023-11-18T01:48:01;3.40;;;2.90;;
74196;SDS011;62555;52.678;4.900;2023-11-18T01:50:26;4.35;;;2.97;;
74196;SDS011;62555;52.678;4.900;2023-11-18T01:52:52;5.18;;;3.25;;
74196;SDS011;62555;52.678;4.900;2023-11-18T01:55:18;4.22;;;3.45;;
74196;SDS011;62555;52.678;4.900;2023-11-18T01:57:43;3.20;;;2.80;;
74196;SDS011;62555;52.678;4.900;2023-11-18T02:00:08;4.00;;;3.22;;
74196;SDS011;62555;52.678;4.900;2023-11-18T02:05:02;3.88;;;3.15;;
74196;SDS011;62555;52.678;4.900;2023-11-18T02:07:28;3.33;;;3.03;;
74196;SDS011;62555;52.678;4.900;2023-11-18T02:09:54;3.55;;;3.00;;
74196;SDS011;62555;52.678;4.900;2023-11-18T02:15:03;3.42;;;3.03;;
74196;SDS011;62555;52.678;4.900;2023-11-18T02:17:34;4.43;;;3.35;;
74196;SDS011;62555;52.678;4.900;2023-11-18T02:20:02;5.32;;;3.75;;
74196;SDS011;62555;52.678;4.900;2023-11-18T02:22:31;3.92;;;3.33;;
74196;SDS011;62555;52.678;4.900;2023-11-18T02:24:56;4.13;;;3.17;;
74196;SDS011;62555;52.678;4.900;2023-11-18T02:27:21;4.77;;;3.60;;
74196;SDS011;62555;52.678;4.900;2023-11-18T02:29:49;4.05;;;3.30;;
74196;SDS011;62555;52.678;4.900;2023-11-18T02:32:20;3.55;;;3.05;;
74196;SDS011;62555;52.678;4.900;2023-11-18T02:34:53;4.53;;;3.70;;
74196;SDS011;62555;52.678;4.900;2023-11-18T02:37:22;4.00;;;2.95;;
74196;SDS011;62555;52.678;4.900;2023-11-18T02:39:48;4.30;;;3.90;;
74196;SDS011;62555;52.678;4.900;2023-11-18T02:42:17;3.85;;;3.55;;
74196;SDS011;62555;52.678;4.900;2023-11-18T02:44:42;3.97;;;3.20;;
74196;SDS011;62555;52.678;4.900;2023-11-18T02:47:07;4.15;;;3.22;;
74196;SDS011;62555;52.678;4.900;2023-11-18T02:49:36;3.43;;;2.93;;
74196;SDS011;62555;52.678;4.900;2023-11-18T02:52:01;4.07;;;3.60;;
74196;SDS011;62555;52.678;4.900;2023-11-18T02:54:27;3.55;;;3.25;;
74196;SDS011;62555;52.678;4.900;2023-11-18T02:56:53;4.80;;;3.15;;
74196;SDS011;62555;52.678;4.900;2023-11-18T02:59:18;4.17;;;3.37;;
74196;SDS011;62555;52.678;4.900;2023-11-18T03:01:43;4.33;;;3.40;;
74196;SDS011;62555;52.678;4.900;2023-11-18T03:04:09;4.20;;;3.00;;
74196;SDS011;62555;52.678;4.900;2023-11-18T03:06:35;3.70;;;3.15;;
74196;SDS011;62555;52.678;4.900;2023-11-18T03:09:00;3.55;;;3.25;;
74196;SDS011;62555;52.678;4.900;2023-11-18T03:11:26;4.47;;;3.38;;
74196;SDS011;62555;52.678;4.900;2023-11-18T03:13:54;4.95;;;4.18;;
74196;SDS011;62555;52.678;4.900;2023-11-18T03:16:20;3.47;;;3.07;;
74196;SDS011;62555;52.678;4.900;2023-11-18T03:18:45;3.33;;;3.00;;
74196;SDS011;62555;52.678;4.900;2023-11-18T03:21:11;3.93;;;3.20;;
74196;SDS011;62555;52.678;4.900;2023-11-18T03:23:37;4.43;;;3.53;;
74196;SDS011;62555;52.678;4.900;2023-11-18T03:26:02;4.40;;;3.08;;
74196;SDS011;62555;52.678;4.900;2023-11-18T03:28:27;3.90;;;3.30;;
74196;SDS011;62555;52.678;4.900;2023-11-18T03:30:52;3.50;;;2.80;;
74196;SDS011;62555;52.678;4.900;2023-11-18T03:33:18;4.18;;;3.42;;
74196;SDS011;62555;52.678;4.900;2023-11-18T03:35:44;4.13;;;3.13;;
74196;SDS011;62555;52.678;4.900;2023-11-18T03:38:09;5.00;;;3.03;;
74196;SDS011;62555;52.678;4.900;2023-11-18T03:40:34;4.47;;;3.75;;
74196;SDS011;62555;52.678;4.900;2023-11-18T03:43:00;3.60;;;2.80;;
74196;SDS011;62555;52.678;4.900;2023-11-18T03:45:25;4.67;;;2.77;;
74196;SDS011;62555;52.678;4.900;2023-11-18T03:47:50;4.10;;;3.13;;
74196;SDS011;62555;52.678;4.900;2023-11-18T03:50:16;4.88;;;3.58;;
74196;SDS011;62555;52.678;4.900;2023-11-18T03:52:41;3.10;;;2.80;;
74196;SDS011;62555;52.678;4.900;2023-11-18T03:55:07;4.73;;;3.40;;
74196;SDS011;62555;52.678;4.900;2023-11-18T03:57:33;4.68;;;3.10;;
74196;SDS011;62555;52.678;4.900;2023-11-18T03:59:58;3.67;;;3.10;;
74196;SDS011;62555;52.678;4.900;2023-11-18T04:02:23;4.33;;;3.03;;
74196;SDS011;62555;52.678;4.900;2023-11-18T04:04:48;4.47;;;3.37;;
74196;SDS011;62555;52.678;4.900;2023-11-18T04:07:13;5.07;;;3.40;;
74196;SDS011;62555;52.678;4.900;2023-11-18T04:09:38;3.50;;;2.60;;
74196;SDS011;62555;52.678;4.900;2023-11-18T04:12:06;3.83;;;3.20;;
74196;SDS011;62555;52.678;4.900;2023-11-18T04:14:32;4.15;;;3.30;;
74196;SDS011;62555;52.678;4.900;2023-11-18T04:16:57;4.38;;;3.05;;
74196;SDS011;62555;52.678;4.900;2023-11-18T04:19:23;3.43;;;3.03;;
74196;SDS011;62555;52.678;4.900;2023-11-18T04:21:48;3.88;;;3.03;;
74196;SDS011;62555;52.678;4.900;2023-11-18T04:24:14;3.55;;;3.17;;
74196;SDS011;62555;52.678;4.900;2023-11-18T04:26:40;4.63;;;2.92;;
74196;SDS011;62555;52.678;4.900;2023-11-18T04:29:05;4.07;;;3.20;;
74196;SDS011;62555;52.678;4.900;2023-11-18T04:31:30;3.53;;;2.70;;
74196;SDS011;62555;52.678;4.900;2023-11-18T04:33:55;5.37;;;3.13;;
74196;SDS011;62555;52.678;4.900;2023-11-18T04:36:21;3.47;;;3.17;;
74196;SDS011;62555;52.678;4.900;2023-11-18T04:38:47;3.72;;;2.92;;
74196;SDS011;62555;52.678;4.900;2023-11-18T04:41:13;3.90;;;2.80;;
74196;SDS011;62555;52.678;4.900;2023-11-18T04:43:38;3.30;;;3.00;;
74196;SDS011;62555;52.678;4.900;2023-11-18T04:46:06;4.82;;;3.40;;
74196;SDS011;62555;52.678;4.900;2023-11-18T04:48:31;4.83;;;3.47;;
74196;SDS011;62555;52.678;4.900;2023-11-18T04:50:57;3.38;;;3.08;;
74196;SDS011;62555;52.678;4.900;2023-11-18T04:53:23;3.30;;;3.00;;
74196;SDS011;62555;52.678;4.900;2023-11-18T04:55:50;3.45;;;2.70;;
74196;SDS011;62555;52.678;4.900;2023-11-18T04:58:15;6.20;;;3.17;;
74196;SDS011;62555;52.678;4.900;2023-11-18T05:00:40;4.00;;;3.60;;
74196;SDS011;62555;52.678;4.900;2023-11-18T05:03:07;3.42;;;2.90;;
74196;SDS011;62555;52.678;4.900;2023-11-18T05:05:34;5.82;;;3.03;;
74196;SDS011;62555;52.678;4.900;2023-11-18T05:08:02;5.57;;;3.40;;
74196;SDS011;62555;52.678;4.900;2023-11-18T05:10:28;4.97;;;3.20;;
74196;SDS011;62555;52.678;4.900;2023-11-18T05:12:53;4.57;;;3.20;;
74196;SDS011;62555;52.678;4.900;2023-11-18T05:15:21;4.10;;;3.03;;
74196;SDS011;62555;52.678;4.900;2023-11-18T05:17:49;4.13;;;2.90;;
74196;SDS011;62555;52.678;4.900;2023-11-18T05:20:14;4.20;;;3.20;;
74196;SDS011;62555;52.678;4.900;2023-11-18T05:22:39;4.45;;;3.95;;
74196;SDS011;62555;52.678;4.900;2023-11-18T05:25:05;4.20;;;3.30;;
74196;SDS011;62555;52.678;4.900;2023-11-18T05:27:30;5.00;;;2.83;;
74196;SDS011;62555;52.678;4.900;2023-11-18T05:29:56;3.78;;;2.90;;
74196;SDS011;62555;52.678;4.900;2023-11-18T05:32:24;3.65;;;2.70;;
74196;SDS011;62555;52.678;4.900;2023-11-18T05:34:51;3.35;;;3.00;;
74196;SDS011;62555;52.678;4.900;2023-11-18T05:37:21;4.53;;;3.20;;
74196;SDS011;62555;52.678;4.900;2023-11-18T05:39:46;2.95;;;2.70;;
74196;SDS011;62555;52.678;4.900;2023-11-18T05:44:40;3.55;;;2.83;;
74196;SDS011;62555;52.678;4.900;2023-11-18T05:47:06;2.92;;;2.55;;
74196;SDS011;62555;52.678;4.900;2023-11-18T05:49:32;5.68;;;2.92;;
74196;SDS011;62555;52.678;4.900;2023-11-18T05:51:58;3.05;;;2.75;;
74196;SDS011;62555;52.678;4.900;2023-11-18T05:54:23;3.42;;;2.80;;
74196;SDS011;62555;52.678;4.900;2023-11-18T05:56:48;3.63;;;3.03;;
74196;SDS011;62555;52.678;4.900;2023-11-18T05:59:13;3.70;;;2.70;;
74196;SDS011;62555;52.678;4.900;2023-11-18T06:01:40;3.67;;;2.63;;
74196;SDS011;62555;52.678;4.900;2023-11-18T06:04:05;4.15;;;3.35;;
74196;SDS011;62555;52.678;4.900;2023-11-18T06:11:29;4.13;;;3.50;;
74196;SDS011;62555;52.678;4.900;2023-11-18T06:13:56;4.25;;;3.40;;
74196;SDS011;62555;52.678;4.900;2023-11-18T06:16:22;3.87;;;2.80;;
74196;SDS011;62555;52.678;4.900;2023-11-18T06:18:49;4.75;;;3.47;;
74196;SDS011;62555;52.678;4.900;2023-11-18T06:21:15;3.70;;;2.88;;
74196;SDS011;62555;52.678;4.900;2023-11-18T06:23:41;4.45;;;2.85;;
74196;SDS011;62555;52.678;4.900;2023-11-18T06:26:07;3.78;;;2.72;;
74196;SDS011;62555;52.678;4.900;2023-11-18T06:28:35;3.83;;;3.10;;
74196;SDS011;62555;52.678;4.900;2023-11-18T06:31:00;4.60;;;3.10;;
74196;SDS011;62555;52.678;4.900;2023-11-18T06:33:25;3.83;;;3.17;;
74196;SDS011;62555;52.678;4.900;2023-11-18T06:35:52;3.67;;;3.00;;
74196;SDS011;62555;52.678;4.900;2023-11-18T06:38:19;3.33;;;2.90;;
74196;SDS011;62555;52.678;4.900;2023-11-18T06:40:44;4.67;;;2.60;;
74196;SDS011;62555;52.678;4.900;2023-11-18T06:43:10;4.20;;;2.53;;
74196;SDS011;62555;52.678;4.900;2023-11-18T06:45:36;3.10;;;2.80;;
74196;SDS011;62555;52.678;4.900;2023-11-18T06:48:02;3.25;;;2.92;;
74196;SDS011;62555;52.678;4.900;2023-11-18T06:50:28;3.35;;;2.95;;
74196;SDS011;62555;52.678;4.900;2023-11-18T06:52:54;2.83;;;2.63;;
74196;SDS011;62555;52.678;4.900;2023-11-18T06:55:20;3.65;;;2.60;;
74196;SDS011;62555;52.678;4.900;2023-11-18T06:57:46;3.65;;;2.85;;
74196;SDS011;62555;52.678;4.900;2023-11-18T07:00:11;3.97;;;3.15;;
74196;SDS011;62555;52.678;4.900;2023-11-18T07:02:39;2.92;;;2.33;;
74196;SDS011;62555;52.678;4.900;2023-11-18T07:05:04;4.38;;;2.88;;
74196;SDS011;62555;52.678;4.900;2023-11-18T07:07:30;3.28;;;2.78;;
74196;SDS011;62555;52.678;4.900;2023-11-18T07:09:57;3.83;;;3.05;;
74196;SDS011;62555;52.678;4.900;2023-11-18T07:12:22;3.33;;;2.53;;
74196;SDS011;62555;52.678;4.900;2023-11-18T07:14:47;4.70;;;2.83;;
74196;SDS011;62555;52.678;4.900;2023-11-18T07:17:13;3.83;;;2.72;;
74196;SDS011;62555;52.678;4.900;2023-11-18T07:19:38;2.93;;;2.63;;
74196;SDS011;62555;52.678;4.900;2023-11-18T07:22:03;4.03;;;2.53;;
74196;SDS011;62555;52.678;4.900;2023-11-18T07:24:31;3.40;;;2.78;;
74196;SDS011;62555;52.678;4.900;2023-11-18T07:26:57;4.22;;;3.10;;
74196;SDS011;62555;52.678;4.900;2023-11-18T07:29:23;3.65;;;2.90;;
74196;SDS011;62555;52.678;4.900;2023-11-18T07:31:48;4.20;;;2.75;;
74196;SDS011;62555;52.678;4.900;2023-11-18T07:34:14;3.47;;;2.42;;
74196;SDS011;62555;52.678;4.900;2023-11-18T07:36:40;4.43;;;2.63;;
74196;SDS011;62555;52.678;4.900;2023-11-18T07:39:05;4.28;;;2.88;;
74196;SDS011;62555;52.678;4.900;2023-11-18T07:41:40;4.40;;;2.75;;
74196;SDS011;62555;52.678;4.900;2023-11-18T07:44:05;4.80;;;2.72;;
74196;SDS011;62555;52.678;4.900;2023-11-18T07:46:31;3.80;;;2.67;;
74196;SDS011;62555;52.678;4.900;2023-11-18T07:48:56;3.43;;;2.07;;
74196;SDS011;62555;52.678;4.900;2023-11-18T07:51:21;3.55;;;2.85;;
74196;SDS011;62555;52.678;4.900;2023-11-18T07:53:48;3.53;;;2.75;;
74196;SDS011;62555;52.678;4.900;2023-11-18T07:56:14;3.33;;;2.67;;
74196;SDS011;62555;52.678;4.900;2023-11-18T07:58:39;3.22;;;2.92;;
74196;SDS011;62555;52.678;4.900;2023-11-18T08:01:06;4.22;;;3.22;;
74196;SDS011;62555;52.678;4.900;2023-11-18T08:03:32;3.95;;;2.83;;
74196;SDS011;62555;52.678;4.900;2023-11-18T08:05:58;4.57;;;2.92;;
74196;SDS011;62555;52.678;4.900;2023-11-18T08:08:23;3.50;;;2.83;;
74196;SDS011;62555;52.678;4.900;2023-11-18T08:10:48;2.93;;;2.63;;
74196;SDS011;62555;52.678;4.900;2023-11-18T08:13:13;3.33;;;2.50;;
74196;SDS011;62555;52.678;4.900;2023-11-18T08:15:39;3.07;;;2.77;;
74196;SDS011;62555;52.678;4.900;2023-11-18T08:18:04;3.58;;;2.90;;
74196;SDS011;62555;52.678;4.900;2023-11-18T08:20:30;4.75;;;2.97;;
74196;SDS011;62555;52.678;4.900;2023-11-18T08:22:55;4.35;;;2.85;;
74196;SDS011;62555;52.678;4.900;2023-11-18T08:25:20;3.20;;;2.80;;
74196;SDS011;62555;52.678;4.900;2023-11-18T08:27:46;4.88;;;2.55;;
74196;SDS011;62555;52.678;4.900;2023-11-18T08:30:12;4.15;;;2.78;;
74196;SDS011;62555;52.678;4.900;2023-11-18T08:32:41;3.28;;;2.67;;
74196;SDS011;62555;52.678;4.900;2023-11-18T08:35:09;4.93;;;3.10;;
74196;SDS011;62555;52.678;4.900;2023-11-18T08:37:35;4.20;;;2.72;;
74196;SDS011;62555;52.678;4.900;2023-11-18T08:40:01;5.45;;;3.05;;
74196;SDS011;62555;52.678;4.900;2023-11-18T08:42:26;4.65;;;2.65;;
74196;SDS011;62555;52.678;4.900;2023-11-18T08:44:52;2.83;;;2.50;;
74196;SDS011;62555;52.678;4.900;2023-11-18T08:49:46;4.28;;;2.83;;
74196;SDS011;62555;52.678;4.900;2023-11-18T08:52:11;3.33;;;2.43;;
74196;SDS011;62555;52.678;4.900;2023-11-18T08:54:37;3.85;;;2.95;;
74196;SDS011;62555;52.678;4.900;2023-11-18T08:57:06;3.07;;;2.77;;
74196;SDS011;62555;52.678;4.900;2023-11-18T09:00:00;5.13;;;3.10;;
74196;SDS011;62555;52.678;4.900;2023-11-18T09:02:32;4.45;;;2.80;;
74196;SDS011;62555;52.678;4.900;2023-11-18T09:05:02;3.08;;;2.63;;
74196;SDS011;62555;52.678;4.900;2023-11-18T09:07:31;4.95;;;2.70;;
74196;SDS011;62555;52.678;4.900;2023-11-18T09:09:59;4.35;;;3.17;;
74196;SDS011;62555;52.678;4.900;2023-11-18T09:14:52;3.80;;;2.55;;
74196;SDS011;62555;52.678;4.900;2023-11-18T09:17:19;3.42;;;2.50;;
74196;SDS011;62555;52.678;4.900;2023-11-18T09:19:47;3.30;;;2.40;;
74196;SDS011;62555;52.678;4.900;2023-11-18T09:22:12;4.47;;;2.40;;
74196;SDS011;62555;52.678;4.900;2023-11-18T09:24:39;4.07;;;2.50;;
74196;SDS011;62555;52.678;4.900;2023-11-18T09:27:04;3.97;;;2.60;;
74196;SDS011;62555;52.678;4.900;2023-11-18T09:29:31;4.75;;;2.63;;
74196;SDS011;62555;52.678;4.900;2023-11-18T09:31:58;4.63;;;2.67;;
74196;SDS011;62555;52.678;4.900;2023-11-18T09:34:24;4.43;;;2.90;;
74196;SDS011;62555;52.678;4.900;2023-11-18T09:36:53;2.72;;;2.03;;
74196;SDS011;62555;52.678;4.900;2023-11-18T09:39:19;3.75;;;2.67;;
74196;SDS011;62555;52.678;4.900;2023-11-18T09:42:02;3.05;;;2.42;;
74196;SDS011;62555;52.678;4.900;2023-11-18T09:44:28;4.15;;;2.38;;
74196;SDS011;62555;52.678;4.900;2023-11-18T09:46:55;3.60;;;2.40;;
74196;SDS011;62555;52.678;4.900;2023-11-18T09:49:28;5.15;;;2.95;;
74196;SDS011;62555;52.678;4.900;2023-11-18T09:51:58;4.18;;;2.42;;
74196;SDS011;62555;52.678;4.900;2023-11-18T09:54:39;3.17;;;2.45;;
74196;SDS011;62555;52.678;4.900;2023-11-18T09:57:08;4.10;;;3.20;;
74196;SDS011;62555;52.678;4.900;2023-11-18T10:02:04;3.90;;;2.50;;
74196;SDS011;62555;52.678;4.900;2023-11-18T10:04:30;3.67;;;3.00;;
74196;SDS011;62555;52.678;4.900;2023-11-18T10:06:56;3.30;;;2.15;;
74196;SDS011;62555;52.678;4.900;2023-11-18T10:09:24;3.15;;;2.28;;
74196;SDS011;62555;52.678;4.900;2023-11-18T10:12:08;5.75;;;2.67;;
74196;SDS011;62555;52.678;4.900;2023-11-18T10:14:36;4.50;;;2.35;;
74196;SDS011;62555;52.678;4.900;2023-11-18T10:17:05;3.58;;;2.40;;
74196;SDS011;62555;52.678;4.900;2023-11-18T10:22:21;5.30;;;2.97;;
74196;SDS011;62555;52.678;4.900;2023-11-18T10:24:47;3.47;;;2.65;;
74196;SDS011;62555;52.678;4.900;2023-11-18T10:27:12;4.07;;;2.40;;
74196;SDS011;62555;52.678;4.900;2023-11-18T10:29:39;3.47;;;2.15;;
74196;SDS011;62555;52.678;4.900;2023-11-18T10:32:05;4.57;;;2.40;;
74196;SDS011;62555;52.678;4.900;2023-11-18T10:34:33;2.70;;;1.88;;
74196;SDS011;62555;52.678;4.900;2023-11-18T10:36:59;3.10;;;2.47;;
74196;SDS011;62555;52.678;4.900;2023-11-18T10:39:31;4.13;;;2.20;;
74196;SDS011;62555;52.678;4.900;2023-11-18T10:41:59;3.75;;;2.30;;
74196;SDS011;62555;52.678;4.900;2023-11-18T10:44:25;3.50;;;2.00;;
74196;SDS011;62555;52.678;4.900;2023-11-18T10:46:51;3.42;;;2.05;;
74196;SDS011;62555;52.678;4.900;2023-11-18T10:49:17;5.00;;;2.20;;
74196;SDS011;62555;52.678;4.900;2023-11-18T10:51:43;2.60;;;2.23;;
74196;SDS011;62555;52.678;4.900;2023-11-18T10:54:12;3.53;;;2.15;;
74196;SDS011;62555;52.678;4.900;2023-11-18T10:59:13;2.92;;;2.03;;
74196;SDS011;62555;52.678;4.900;2023-11-18T11:01:42;5.13;;;2.30;;
74196;SDS011;62555;52.678;4.900;2023-11-18T11:04:07;2.22;;;1.90;;
74196;SDS011;62555;52.678;4.900;2023-11-18T11:06:35;3.38;;;2.53;;
74196;SDS011;62555;52.678;4.900;2023-11-18T11:09:01;4.10;;;2.13;;
74196;SDS011;62555;52.678;4.900;2023-11-18T11:11:39;2.35;;;2.15;;
74196;SDS011;62555;52.678;4.900;2023-11-18T11:14:04;4.28;;;2.08;;
74196;SDS011;62555;52.678;4.900;2023-11-18T11:16:35;2.85;;;2.00;;
74196;SDS011;62555;52.678;4.900;2023-11-18T11:19:03;2.63;;;2.30;;
74196;SDS011;62555;52.678;4.900;2023-11-18T11:21:33;3.28;;;1.80;;
74196;SDS011;62555;52.678;4.900;2023-11-18T11:24:02;4.07;;;2.17;;
74196;SDS011;62555;52.678;4.900;2023-11-18T11:26:41;3.08;;;2.00;;
74196;SDS011;62555;52.678;4.900;2023-11-18T11:29:25;2.40;;;1.77;;
74196;SDS011;62555;52.678;4.900;2023-11-18T11:32:00;4.35;;;1.98;;
74196;SDS011;62555;52.678;4.900;2023-11-18T11:34:28;2.83;;;1.20;;
74196;SDS011;62555;52.678;4.900;2023-11-18T11:36:54;2.83;;;2.03;;
74196;SDS011;62555;52.678;4.900;2023-11-18T11:39:20;2.42;;;1.45;;
74196;SDS011;62555;52.678;4.900;2023-11-18T11:41:54;3.03;;;1.40;;
74196;SDS011;62555;52.678;4.900;2023-11-18T11:44:21;2.83;;;1.50;;
74196;SDS011;62555;52.678;4.900;2023-11-18T11:46:50;1.88;;;1.60;;
74196;SDS011;62555;52.678;4.900;2023-11-18T11:49:19;1.38;;;1.27;;
74196;SDS011;62555;52.678;4.900;2023-11-18T11:52:37;5.03;;;1.80;;
74196;SDS011;62555;52.678;4.900;2023-11-18T11:54:42;14.27;;;2.85;;
74196;SDS011;62555;52.678;4.900;2023-11-18T11:57:09;6.95;;;1.77;;
74196;SDS011;62555;52.678;4.900;2023-11-18T12:02:12;6.60;;;2.00;;
74196;SDS011;62555;52.678;4.900;2023-11-18T12:04:40;3.88;;;1.35;;
74196;SDS011;62555;52.678;4.900;2023-11-18T12:07:08;2.80;;;1.40;;
74196;SDS011;62555;52.678;4.900;2023-11-18T12:09:34;2.85;;;1.40;;
74196;SDS011;62555;52.678;4.900;2023-11-18T12:12:03;2.85;;;1.27;;
74196;SDS011;62555;52.678;4.900;2023-11-18T12:14:29;3.75;;;1.20;;
74196;SDS011;62555;52.678;4.900;2023-11-18T12:19:32;3.35;;;1.60;;
74196;SDS011;62555;52.678;4.900;2023-11-18T12:22:01;12.68;;;2.72;;
74196;SDS011;62555;52.678;4.900;2023-11-18T12:24:35;5.30;;;1.73;;
74196;SDS011;62555;52.678;4.900;2023-11-18T12:27:00;2.13;;;1.20;;
74196;SDS011;62555;52.678;4.900;2023-11-18T12:29:33;1.92;;;1.30;;
74196;SDS011;62555;52.678;4.900;2023-11-18T12:32:03;6.45;;;2.47;;
74196;SDS011;62555;52.678;4.900;2023-11-18T12:34:49;11.00;;;2.85;;
74196;SDS011;62555;52.678;4.900;2023-11-18T12:37:26;4.95;;;1.88;;
74196;SDS011;62555;52.678;4.900;2023-11-18T12:42:58;6.13;;;1.83;;
74196;SDS011;62555;52.678;4.900;2023-11-18T12:48:06;6.53;;;2.05;;
74196;SDS011;62555;52.678;4.900;2023-11-18T12:50:38;4.28;;;1.83;;
74196;SDS011;62555;52.678;4.900;2023-11-18T12:53:04;3.80;;;1.92;;
74196;SDS011;62555;52.678;4.900;2023-11-18T12:55:31;2.05;;;1.55;;
74196;SDS011;62555;52.678;4.900;2023-11-18T12:57:58;4.85;;;1.85;;
74196;SDS011;62555;52.678;4.900;2023-11-18T13:00:23;2.92;;;2.00;;
74196;SDS011;62555;52.678;4.900;2023-11-18T13:02:55;4.75;;;2.63;;
74196;SDS011;62555;52.678;4.900;2023-11-18T13:05:22;2.63;;;1.98;;
74196;SDS011;62555;52.678;4.900;2023-11-18T13:07:48;3.53;;;2.03;;
74196;SDS011;62555;52.678;4.900;2023-11-18T13:10:14;2.73;;;2.33;;
74196;SDS011;62555;52.678;4.900;2023-11-18T13:12:40;2.97;;;2.58;;
74196;SDS011;62555;52.678;4.900;2023-11-18T13:15:07;3.85;;;2.25;;
74196;SDS011;62555;52.678;4.900;2023-11-18T13:17:33;3.38;;;2.20;;
74196;SDS011;62555;52.678;4.900;2023-11-18T13:20:05;3.33;;;2.78;;
74196;SDS011;62555;52.678;4.900;2023-11-18T13:22:37;3.17;;;2.38;;
74196;SDS011;62555;52.678;4.900;2023-11-18T13:25:04;2.90;;;2.70;;
74196;SDS011;62555;52.678;4.900;2023-11-18T13:27:30;4.22;;;2.80;;
74196;SDS011;62555;52.678;4.900;2023-11-18T13:29:57;3.08;;;2.65;;
74196;SDS011;62555;52.678;4.900;2023-11-18T13:32:22;5.00;;;3.08;;
74196;SDS011;62555;52.678;4.900;2023-11-18T13:34:48;14.60;;;4.00;;
74196;SDS011;62555;52.678;4.900;2023-11-18T13:37:13;6.23;;;3.40;;
74196;SDS011;62555;52.678;4.900;2023-11-18T13:39:41;6.05;;;3.13;;
74196;SDS011;62555;52.678;4.900;2023-11-18T13:42:23;4.28;;;3.28;;
74196;SDS011;62555;52.678;4.900;2023-11-18T13:44:49;3.65;;;2.90;;
74196;SDS011;62555;52.678;4.900;2023-11-18T13:47:18;9.75;;;3.10;;
74196;SDS011;62555;52.678;4.900;2023-11-18T13:49:43;4.45;;;2.72;;
74196;SDS011;62555;52.678;4.900;2023-11-18T13:52:10;3.95;;;3.03;;
74196;SDS011;62555;52.678;4.900;2023-11-18T13:54:38;4.30;;;3.00;;
74196;SDS011;62555;52.678;4.900;2023-11-18T13:57:03;4.47;;;2.95;;
74196;SDS011;62555;52.678;4.900;2023-11-18T13:59:29;3.08;;;2.65;;
74196;SDS011;62555;52.678;4.900;2023-11-18T14:01:54;20.25;;;8.63;;
74196;SDS011;62555;52.678;4.900;2023-11-18T14:04:23;30.85;;;11.40;;
74196;SDS011;62555;52.678;4.900;2023-11-18T14:06:52;6.88;;;3.88;;
74196;SDS011;62555;52.678;4.900;2023-11-18T14:09:18;3.28;;;2.83;;
74196;SDS011;62555;52.678;4.900;2023-11-18T14:11:46;3.05;;;2.58;;
74196;SDS011;62555;52.678;4.900;2023-11-18T14:14:11;4.60;;;2.97;;
74196;SDS011;62555;52.678;4.900;2023-11-18T14:16:36;3.60;;;2.50;;
74196;SDS011;62555;52.678;4.900;2023-11-18T14:19:01;2.60;;;2.40;;
74196;SDS011;62555;52.678;4.900;2023-11-18T14:21:27;3.95;;;2.13;;
74196;SDS011;62555;52.678;4.900;2023-11-18T14:23:53;6.13;;;3.03;;
74196;SDS011;62555;52.678;4.900;2023-11-18T14:26:21;13.18;;;3.95;;
74196;SDS011;62555;52.678;4.900;2023-11-18T14:28:46;3.92;;;2.13;;
74196;SDS011;62555;52.678;4.900;2023-11-18T14:31:11;3.35;;;2.15;;
74196;SDS011;62555;52.678;4.900;2023-11-18T14:33:37;2.72;;;2.08;;
74196;SDS011;62555;52.678;4.900;2023-11-18T14:36:02;3.37;;;2.37;;
74196;SDS011;62555;52.678;4.900;2023-11-18T14:38:30;3.13;;;2.05;;
74196;SDS011;62555;52.678;4.900;2023-11-18T14:40:55;3.13;;;1.90;;
74196;SDS011;62555;52.678;4.900;2023-11-18T14:43:21;2.70;;;2.38;;
74196;SDS011;62555;52.678;4.900;2023-11-18T14:45:46;2.10;;;1.80;;
74196;SDS011;62555;52.678;4.900;2023-11-18T14:48:11;3.80;;;2.53;;
74196;SDS011;62555;52.678;4.900;2023-11-18T14:50:38;2.38;;;2.17;;
74196;SDS011;62555;52.678;4.900;2023-11-18T14:53:04;2.72;;;2.15;;
74196;SDS011;62555;52.678;4.900;2023-11-18T14:55:30;3.92;;;1.90;;
74196;SDS011;62555;52.678;4.900;2023-11-18T14:57:57;13.43;;;5.20;;
74196;SDS011;62555;52.678;4.900;2023-11-18T15:00:22;4.60;;;2.73;;
74196;SDS011;62555;52.678;4.900;2023-11-18T15:02:50;2.72;;;2.40;;
74196;SDS011;62555;52.678;4.900;2023-11-18T15:05:15;3.28;;;2.30;;
74196;SDS011;62555;52.678;4.900;2023-11-18T15:07:44;4.13;;;1.58;;
74196;SDS011;62555;52.678;4.900;2023-11-18T15:10:10;2.22;;;1.52;;
74196;SDS011;62555;52.678;4.900;2023-11-18T15:12:35;2.13;;;1.80;;
74196;SDS011;62555;52.678;4.900;2023-11-18T15:15:00;2.47;;;1.60;;
74196;SDS011;62555;52.678;4.900;2023-11-18T15:17:26;2.05;;;1.60;;
74196;SDS011;62555;52.678;4.900;2023-11-18T15:19:51;2.60;;;1.63;;